Enter the Airport ICAO Code

Search by Airport or City

Current Weather

SCTE | El Tepual Airport

Puerto Montt, Chile

Last Update 13 Minutes Ago

Mostly Cloudy Sky

Temperature of 13 ēC

Light to Moderate Winds from SouthEast

Temperature

13 ēC

Dew Point Temperature

04 ēC

Relative Humidity

54.45 %

Wind Direction

SouthEast (140ē, Without Significant Variations)

Wind Velocity

17 km/h (09 kt)

Gusts

None

Visibility

Greater than 10 Kilometers

Sea Level Pressure

1021 hPa (Hectopascals)

Layers of Clouds

60% to 90% of Sky Covered from 1524 mts (5000 ft) Above Ground Level.

METAR SCTE 022100Z 14009KT 9999 BKN050 13/04 Q1021 NOSIG

Weather Forecast

SCTE | El Tepual Airport

Puerto Montt, Chile

Forecast valid for the next 21 Hours

From now on it is expected:

Mostly Cloudy Sky

Light to Moderate Winds from South

Maximum Temperature

15 ēC in -2 Hours

Minimum Temperature

06 ēC in 12 Hours

TAF SCTE 021648Z 0218/0318 19008KT BKN040 TX15/0219Z TN06/0309Z TEMPO 0309/0314 BKN020 BKN040